Time;durP1;ratioP1;P1;durP2;ratioP2;P2;SDS_P1;SDS_P2;PMS_P1;PMS_P2;Temp;Humidity;BMP_temperature;BMP_pressure;BME280_temperature;BME280_humidity;BME280_pressure;Samples;Min_cycle;Max_cycle;Signal;HPM_P1;HPM_P2
2023/07/22 00:01:23;;;;;;;4.80;3.30;;;15.60;99.90;;;;;;4997069;28;20037;-66
2023/07/22 00:03:49;;;;;;;3.58;3.22;;;15.50;99.90;;;;;;4996405;28;20023;-66
2023/07/22 00:06:14;;;;;;;9.05;3.70;;;15.50;99.90;;;;;;4996610;28;20180;-66
2023/07/22 00:08:40;;;;;;;5.13;3.47;;;15.40;99.90;;;;;;4997618;28;20020;-66
2023/07/22 00:11:06;;;;;;;6.05;4.30;;;15.30;99.90;;;;;;4996809;28;20030;-66
2023/07/22 00:13:33;;;;;;;3.58;3.08;;;15.20;99.90;;;;;;4997327;28;20101;-66
2023/07/22 00:15:59;;;;;;;8.43;3.45;;;15.00;99.90;;;;;;4998655;28;20042;-66
2023/07/22 00:18:27;;;;;;;5.05;3.65;;;15.10;99.90;;;;;;5001270;28;20033;-66
2023/07/22 00:20:53;;;;;;;4.25;3.38;;;15.10;99.90;;;;;;5000125;28;20050;-66
2023/07/22 00:23:19;;;;;;;14.38;3.97;;;15.20;99.90;;;;;;5001296;28;20116;-66
2023/07/22 00:25:46;;;;;;;5.80;3.85;;;15.20;99.90;;;;;;5000569;28;20034;-66
2023/07/22 00:28:11;;;;;;;5.95;3.33;;;15.20;99.90;;;;;;5000694;28;20022;-66
2023/07/22 00:30:37;;;;;;;6.05;3.42;;;15.20;99.90;;;;;;5000155;28;20023;-66
2023/07/22 00:33:02;;;;;;;6.53;3.70;;;15.20;99.90;;;;;;5000899;28;20026;-66
2023/07/22 00:35:28;;;;;;;8.68;4.35;;;15.10;99.90;;;;;;5000113;28;20026;-66
2023/07/22 00:37:53;;;;;;;5.80;3.00;;;15.00;99.90;;;;;;5000385;28;20073;-66
2023/07/22 00:40:19;;;;;;;5.10;3.33;;;14.90;99.90;;;;;;5000996;28;20022;-66
2023/07/22 00:42:45;;;;;;;6.38;3.85;;;14.90;99.90;;;;;;5000196;28;20081;-66
2023/07/22 00:45:11;;;;;;;5.55;3.97;;;14.90;99.90;;;;;;5000660;28;20035;-66
2023/07/22 00:47:37;;;;;;;4.97;3.55;;;15.00;99.90;;;;;;4999913;28;20030;-66
2023/07/22 00:50:06;;;;;;;5.40;3.65;;;14.90;99.90;;;;;;5000727;28;20026;-66
2023/07/22 00:52:32;;;;;;;5.68;3.67;;;14.70;99.90;;;;;;5000493;28;20033;-66
2023/07/22 00:54:58;;;;;;;6.53;3.42;;;14.60;99.90;;;;;;4999627;28;20088;-66
2023/07/22 00:57:24;;;;;;;5.95;3.28;;;14.70;99.90;;;;;;5000004;28;20062;-66
2023/07/22 00:59:49;;;;;;;5.45;3.67;;;14.70;99.90;;;;;;5000843;28;20049;-66
2023/07/22 01:02:15;;;;;;;4.28;3.50;;;14.70;99.90;;;;;;4999706;28;20058;-66
2023/07/22 01:04:41;;;;;;;5.75;3.50;;;14.60;99.90;;;;;;5000258;28;20050;-66
2023/07/22 01:07:08;;;;;;;5.40;3.78;;;14.40;99.90;;;;;;5000543;28;20018;-66
2023/07/22 01:09:38;;;;;;;9.70;3.78;;;14.40;99.90;;;;;;5000208;28;20057;-66
2023/07/22 01:12:06;;;;;;;12.63;5.82;;;14.30;99.90;;;;;;4999375;28;20023;-66
2023/07/22 01:14:35;;;;;;;7.40;4.10;;;14.20;99.90;;;;;;4999159;28;20145;-66
2023/07/22 01:17:09;;;;;;;9.20;4.85;;;14.30;99.90;;;;;;5000209;28;20026;-66
2023/07/22 01:19:35;;;;;;;5.68;3.70;;;14.40;99.90;;;;;;5000069;28;20037;-66
2023/07/22 01:22:03;;;;;;;4.32;3.67;;;14.30;99.90;;;;;;4999248;28;20117;-66
2023/07/22 01:24:29;;;;;;;6.47;3.53;;;14.30;99.90;;;;;;4999276;28;20034;-66
2023/07/22 01:26:55;;;;;;;6.07;4.25;;;14.30;99.90;;;;;;4998596;28;20030;-66
2023/07/22 01:29:22;;;;;;;8.57;3.33;;;14.20;99.90;;;;;;4999103;28;20109;-66
2023/07/22 01:31:50;;;;;;;4.35;2.65;;;14.20;99.90;;;;;;5000236;28;20049;-66
2023/07/22 01:34:16;;;;;;;3.90;2.97;;;14.10;99.90;;;;;;4999747;28;20070;-66
2023/07/22 01:36:43;;;;;;;4.50;2.95;;;14.00;99.90;;;;;;4998849;28;20026;-66
2023/07/22 01:39:08;;;;;;;7.68;3.47;;;14.00;99.90;;;;;;4999812;28;20105;-66
2023/07/22 01:41:34;;;;;;;5.32;3.67;;;14.00;99.90;;;;;;4999128;28;20258;-66
2023/07/22 01:43:59;;;;;;;5.88;2.97;;;14.10;99.90;;;;;;4999098;28;20022;-66
2023/07/22 01:46:25;;;;;;;5.30;3.30;;;14.00;99.90;;;;;;4998648;28;20076;-66
2023/07/22 01:48:51;;;;;;;8.20;3.22;;;14.10;99.90;;;;;;4998797;28;20023;-66
2023/07/22 01:51:16;;;;;;;5.05;3.42;;;14.00;99.90;;;;;;4998741;28;20033;-66
2023/07/22 01:53:42;;;;;;;5.95;3.58;;;14.00;99.90;;;;;;4998513;28;20118;-66
2023/07/22 01:56:07;;;;;;;4.22;3.25;;;14.00;99.90;;;;;;4998723;28;20022;-66
2023/07/22 01:58:33;;;;;;;4.60;3.53;;;14.10;99.90;;;;;;4998866;28;20037;-66
2023/07/22 02:00:59;;;;;;;4.63;3.28;;;14.00;99.90;;;;;;4999154;28;20029;-66
2023/07/22 02:03:24;;;;;;;3.63;2.97;;;13.90;99.90;;;;;;4998390;28;20065;-66
2023/07/22 02:05:50;;;;;;;6.82;3.20;;;13.70;99.90;;;;;;4998316;28;20022;-66
2023/07/22 02:08:15;;;;;;;5.90;3.05;;;13.60;99.90;;;;;;4999323;28;20110;-66
2023/07/22 02:10:41;;;;;;;3.83;2.80;;;13.60;99.90;;;;;;4999364;28;20019;-66
2023/07/22 02:13:07;;;;;;;3.55;3.00;;;13.60;99.90;;;;;;4998264;28;20022;-66
2023/07/22 02:15:32;;;;;;;7.30;3.10;;;13.60;99.90;;;;;;4998430;28;20022;-66
2023/07/22 02:17:58;;;;;;;4.15;2.95;;;13.50;99.90;;;;;;4998105;28;20098;-66
2023/07/22 02:20:26;;;;;;;6.40;3.15;;;13.50;99.90;;;;;;4998923;28;20030;-66
2023/07/22 02:22:52;;;;;;;7.35;4.13;;;13.40;99.90;;;;;;4998013;28;20046;-66
2023/07/22 02:25:18;;;;;;;6.65;4.35;;;13.40;99.90;;;;;;4997956;28;20049;-66
2023/07/22 02:27:43;;;;;;;10.60;4.25;;;13.50;99.90;;;;;;4998062;28;20022;-66
2023/07/22 02:30:11;;;;;;;8.60;5.30;;;13.50;99.90;;;;;;4998813;28;20025;-66
2023/07/22 02:32:41;;;;;;;10.52;4.50;;;13.60;99.90;;;;;;4997963;28;20098;-66
2023/07/22 02:35:07;;;;;;;6.03;4.00;;;13.40;99.90;;;;;;4998110;28;20030;-66
2023/07/22 02:37:35;;;;;;;8.50;4.70;;;13.40;99.90;;;;;;4997890;28;20033;-66
2023/07/22 02:40:00;;;;;;;7.10;4.43;;;13.30;99.90;;;;;;4997584;28;20018;-66
2023/07/22 02:42:26;;;;;;;7.88;4.57;;;13.40;99.90;;;;;;4997934;28;20022;-66
2023/07/22 02:44:52;;;;;;;7.05;4.53;;;13.50;99.90;;;;;;4998502;28;20062;-66
2023/07/22 02:47:18;;;;;;;8.55;3.90;;;13.60;99.90;;;;;;4997901;28;20138;-66
2023/07/22 02:49:43;;;;;;;6.72;4.85;;;13.60;99.90;;;;;;4997634;28;20023;-66
2023/07/22 02:52:09;;;;;;;8.55;4.43;;;13.40;99.90;;;;;;4998381;28;20034;-66
2023/07/22 02:54:39;;;;;;;7.07;4.13;;;13.40;99.90;;;;;;4997959;28;20086;-66
2023/07/22 02:57:05;;;;;;;5.13;3.72;;;13.60;99.90;;;;;;4997529;28;20026;-66
2023/07/22 02:59:32;;;;;;;8.07;3.90;;;13.60;99.90;;;;;;4998282;28;20033;-66
2023/07/22 03:01:57;;;;;;;8.75;4.35;;;13.70;99.90;;;;;;4997769;28;20026;-66
2023/07/22 03:04:23;;;;;;;7.43;3.88;;;13.60;99.90;;;;;;4997063;28;20027;-66
2023/07/22 03:06:48;;;;;;;6.35;3.97;;;13.40;99.90;;;;;;4998345;28;20023;-66
2023/07/22 03:09:14;;;;;;;9.25;4.43;;;13.40;99.90;;;;;;4998212;28;20022;-66
2023/07/22 03:11:39;;;;;;;6.90;4.43;;;13.50;99.90;;;;;;4997177;28;20022;-66
2023/07/22 03:14:05;;;;;;;6.47;4.00;;;13.60;99.90;;;;;;4997449;28;20076;-66
2023/07/22 03:16:31;;;;;;;5.70;4.00;;;13.60;99.90;;;;;;4997401;28;20026;-66
2023/07/22 03:18:57;;;;;;;5.25;3.95;;;13.50;99.90;;;;;;4997141;28;20030;-66
2023/07/22 03:21:23;;;;;;;9.05;4.30;;;13.40;99.90;;;;;;4997068;28;20042;-66
2023/07/22 03:23:49;;;;;;;7.70;3.60;;;13.50;99.90;;;;;;4998328;28;20033;-66
2023/07/22 03:26:14;;;;;;;7.63;4.28;;;13.50;99.90;;;;;;4998070;28;20033;-66
2023/07/22 03:28:41;;;;;;;6.65;3.95;;;13.40;99.90;;;;;;4997855;28;20022;-66
2023/07/22 03:31:08;;;;;;;6.95;4.10;;;13.30;99.90;;;;;;4997645;28;20037;-66
2023/07/22 03:33:34;;;;;;;5.93;4.18;;;13.30;99.90;;;;;;4997770;28;20019;-66
2023/07/22 03:36:00;;;;;;;6.45;4.30;;;13.20;99.90;;;;;;4997683;28;20065;-66
2023/07/22 03:38:25;;;;;;;13.85;4.07;;;13.10;99.90;;;;;;4996763;28;20030;-66
2023/07/22 03:40:53;;;;;;;6.97;3.90;;;13.00;99.90;;;;;;4997456;28;20023;-66
2023/07/22 03:43:18;;;;;;;7.47;3.80;;;13.10;99.90;;;;;;4997123;28;20038;-66
2023/07/22 03:45:44;;;;;;;7.53;4.32;;;13.10;99.90;;;;;;4996670;28;20019;-66
2023/07/22 03:48:09;;;;;;;6.07;3.55;;;13.00;99.90;;;;;;4998062;28;20157;-66
2023/07/22 03:50:35;;;;;;;8.55;4.95;;;13.00;99.90;;;;;;4996457;28;20022;-66
2023/07/22 03:53:01;;;;;;;8.82;3.95;;;13.00;99.90;;;;;;4997615;28;20023;-66
2023/07/22 03:55:26;;;;;;;10.35;4.50;;;12.90;99.90;;;;;;4996519;28;20132;-66
2023/07/22 03:57:52;;;;;;;7.07;4.10;;;12.80;99.90;;;;;;4997615;28;20023;-66
2023/07/22 04:00:17;;;;;;;14.80;5.35;;;12.60;99.90;;;;;;4996769;28;20023;-66
2023/07/22 04:02:43;;;;;;;6.95;4.20;;;12.70;99.90;;;;;;4996678;28;20093;-66
2023/07/22 04:05:09;;;;;;;9.80;4.50;;;12.60;99.90;;;;;;4996366;28;20046;-66
2023/07/22 04:07:35;;;;;;;7.32;4.32;;;12.60;99.90;;;;;;4997109;28;20038;-66
2023/07/22 04:10:00;;;;;;;6.63;4.20;;;12.60;99.90;;;;;;4996832;28;20015;-66
2023/07/22 04:12:26;;;;;;;7.43;4.25;;;12.60;99.90;;;;;;4997556;28;20053;-66
2023/07/22 04:14:51;;;;;;;5.53;3.70;;;12.60;99.90;;;;;;4996267;28;20026;-66
2023/07/22 04:17:17;;;;;;;6.72;4.38;;;12.70;99.90;;;;;;4997317;28;20033;-66
2023/07/22 04:19:43;;;;;;;8.50;4.47;;;12.80;99.90;;;;;;4997251;28;20069;-66
2023/07/22 04:22:09;;;;;;;6.88;4.15;;;12.90;99.90;;;;;;4996656;28;20030;-66
2023/07/22 04:24:34;;;;;;;9.07;4.78;;;12.80;99.90;;;;;;5019274;23;20038;-71
2023/07/22 04:27:01;;;;;;;5.85;4.30;;;12.80;99.90;;;;;;4997530;28;20035;-70
2023/07/22 04:29:27;;;;;;;6.00;4.03;;;12.90;99.90;;;;;;4996546;28;20029;-71
2023/07/22 04:32:00;;;;;;;8.23;4.22;;;12.80;99.90;;;;;;4996276;28;20026;-71
2023/07/22 04:34:32;;;;;;;5.70;3.85;;;12.70;99.90;;;;;;4996417;28;20026;-70
2023/07/22 04:36:58;;;;;;;7.20;4.47;;;12.70;99.90;;;;;;4996298;28;20030;-70
2023/07/22 04:39:24;;;;;;;8.32;4.18;;;12.70;99.90;;;;;;4996194;28;20026;-71
2023/07/22 04:41:50;;;;;;;5.43;3.72;;;12.70;99.90;;;;;;4997372;28;20105;-70
2023/07/22 04:44:17;;;;;;;7.60;3.70;;;12.90;99.90;;;;;;4996276;28;20026;-71
2023/07/22 04:46:42;;;;;;;7.35;4.28;;;13.00;99.90;;;;;;4997014;28;20029;-71
2023/07/22 04:49:08;;;;;;;9.07;4.32;;;13.10;99.90;;;;;;4996562;28;20027;-70
2023/07/22 04:51:34;;;;;;;5.00;3.58;;;13.20;99.90;;;;;;4996781;28;20057;-71
2023/07/22 04:53:59;;;;;;;8.20;3.92;;;13.30;99.90;;;;;;4996196;28;20054;-71
2023/07/22 04:56:25;;;;;;;5.90;4.00;;;13.30;99.90;;;;;;4996204;28;20053;-70
2023/07/22 04:58:50;;;;;;;6.88;4.70;;;13.40;99.90;;;;;;4996904;28;20038;-71
2023/07/22 05:01:16;;;;;;;7.55;4.28;;;13.40;99.90;;;;;;4996994;28;20026;-70
2023/07/22 05:03:42;;;;;;;7.75;4.13;;;13.20;99.90;;;;;;4999980;28;20023;-71
2023/07/22 05:06:08;;;;;;;5.93;4.28;;;13.00;99.90;;;;;;4999534;28;20025;-70
2023/07/22 05:08:34;;;;;;;6.38;4.18;;;12.90;99.90;;;;;;4999651;28;20030;-70
2023/07/22 05:11:00;;;;;;;13.32;5.38;;;12.90;99.90;;;;;;5000103;28;20094;-70
2023/07/22 05:13:26;;;;;;;6.28;4.30;;;13.00;99.90;;;;;;4999543;28;20125;-71
2023/07/22 05:15:51;;;;;;;6.43;3.70;;;13.00;99.90;;;;;;4999685;28;20057;-71
2023/07/22 05:18:17;;;;;;;8.48;4.43;;;13.10;99.90;;;;;;4999273;28;20077;-71
2023/07/22 05:20:42;;;;;;;6.30;4.18;;;13.20;99.90;;;;;;4999294;28;20029;-70
2023/07/22 05:23:08;;;;;;;6.88;4.35;;;13.40;99.90;;;;;;4999526;28;20096;-71
2023/07/22 05:25:33;;;;;;;9.23;4.38;;;13.40;99.90;;;;;;4999247;28;20113;-70
2023/07/22 05:27:59;;;;;;;8.98;4.65;;;13.40;99.90;;;;;;5000092;28;20058;-71
2023/07/22 05:30:24;;;;;;;12.38;5.00;;;13.30;99.90;;;;;;5000037;28;20102;-71
2023/07/22 05:32:53;;;;;;;7.45;4.90;;;13.20;99.90;;;;;;4999156;28;20033;-70
2023/07/22 05:35:19;;;;;;;8.70;4.72;;;13.30;99.90;;;;;;4998973;28;20026;-71
2023/07/22 05:37:44;;;;;;;8.75;5.32;;;13.20;99.90;;;;;;4999030;28;20038;-71
2023/07/22 05:40:11;;;;;;;8.60;5.07;;;13.20;99.90;;;;;;4999025;28;20026;-72
2023/07/22 05:42:36;;;;;;;7.85;5.07;;;13.40;99.90;;;;;;4999302;28;20034;-71
2023/07/22 05:45:02;;;;;;;7.07;4.40;;;13.40;99.90;;;;;;4999603;28;20033;-71
2023/07/22 05:47:28;;;;;;;9.55;4.75;;;13.50;99.90;;;;;;4999744;28;20014;-71
2023/07/22 05:49:53;;;;;;;8.73;5.43;;;13.50;99.90;;;;;;5000272;28;20023;-71
2023/07/22 05:52:19;;;;;;;7.85;5.18;;;13.60;99.90;;;;;;4998856;28;20036;-70
2023/07/22 05:54:44;;;;;;;10.82;5.97;;;13.60;99.90;;;;;;4999283;28;20081;-71
2023/07/22 05:57:10;;;;;;;11.30;5.22;;;13.50;99.90;;;;;;4998782;28;20023;-71
2023/07/22 05:59:39;;;;;;;7.82;5.28;;;13.80;99.90;;;;;;4998777;28;20033;-70
2023/07/22 06:02:05;;;;;;;14.75;6.80;;;13.80;99.90;;;;;;4998547;28;20022;-71
2023/07/22 06:04:31;;;;;;;8.90;5.50;;;13.80;99.90;;;;;;4998372;28;20029;-71
2023/07/22 06:06:57;;;;;;;10.13;5.78;;;14.00;99.90;;;;;;4998204;28;20121;-71
2023/07/22 06:09:23;;;;;;;8.98;5.30;;;13.80;99.90;;;;;;4998565;28;20022;-71
2023/07/22 06:11:48;;;;;;;13.15;6.20;;;14.00;99.90;;;;;;4999107;28;20031;-72
2023/07/22 06:14:14;;;;;;;7.90;5.38;;;14.10;99.90;;;;;;4999062;28;20027;-71
2023/07/22 06:16:39;;;;;;;9.48;5.88;;;14.20;99.90;;;;;;4999477;28;20036;-71
2023/07/22 06:19:05;;;;;;;7.57;5.50;;;14.30;99.90;;;;;;4998183;28;20033;-71
2023/07/22 06:21:30;;;;;;;7.88;5.40;;;14.40;99.90;;;;;;4998297;28;20037;-71
2023/07/22 06:23:56;;;;;;;6.95;4.65;;;14.60;99.90;;;;;;4997978;28;20026;-71
2023/07/22 06:26:21;;;;;;;10.15;5.00;;;14.80;99.90;;;;;;4997946;28;20030;-71
2023/07/22 06:28:47;;;;;;;7.13;4.88;;;14.90;99.90;;;;;;4998070;28;20085;-71
2023/07/22 06:31:13;;;;;;;6.85;4.97;;;14.90;99.90;;;;;;4998135;28;20027;-71
2023/07/22 06:33:38;;;;;;;7.85;4.97;;;15.10;99.90;;;;;;4998640;28;20107;-71
2023/07/22 06:36:04;;;;;;;8.93;5.25;;;15.20;99.90;;;;;;4997706;28;20023;-71
2023/07/22 06:38:30;;;;;;;9.07;4.95;;;15.20;99.90;;;;;;4998043;28;20040;-71
2023/07/22 06:40:57;;;;;;;11.23;5.00;;;15.30;99.90;;;;;;4998555;28;20031;-72
2023/07/22 06:43:22;;;;;;;8.68;4.60;;;15.50;99.90;;;;;;4998583;28;20026;-71
2023/07/22 06:45:48;;;;;;;11.23;5.07;;;15.60;99.90;;;;;;4997739;28;20022;-71
2023/07/22 06:48:13;;;;;;;10.23;5.13;;;15.80;99.90;;;;;;4997913;28;20034;-71
2023/07/22 06:50:39;;;;;;;10.63;4.78;;;16.00;99.90;;;;;;4997385;28;20037;-71
2023/07/22 06:53:04;;;;;;;7.88;4.32;;;16.10;99.90;;;;;;4997509;28;20023;-72
2023/07/22 06:55:30;;;;;;;8.50;4.57;;;16.30;99.90;;;;;;4997932;28;20029;-71
2023/07/22 06:57:57;;;;;;;9.70;4.75;;;16.40;99.90;;;;;;4998435;28;20029;-72
2023/07/22 07:00:22;;;;;;;10.65;4.60;;;16.30;99.90;;;;;;4998228;28;20022;-71
2023/07/22 07:02:48;;;;;;;9.20;4.30;;;16.10;99.90;;;;;;4997297;28;20033;-71
2023/07/22 07:05:14;;;;;;;8.40;4.60;;;16.10;99.90;;;;;;4997276;28;20018;-72
2023/07/22 07:07:40;;;;;;;6.95;4.15;;;16.20;99.90;;;;;;4997208;28;20076;-72
2023/07/22 07:10:07;;;;;;;5.95;4.10;;;16.50;99.90;;;;;;4997751;28;20036;-72
2023/07/22 07:12:32;;;;;;;11.80;4.88;;;16.60;99.90;;;;;;4997914;28;20037;-72
2023/07/22 07:14:58;;;;;;;8.18;4.82;;;16.60;99.90;;;;;;4997033;28;20030;-72
2023/07/22 07:17:23;;;;;;;10.27;4.85;;;16.70;99.90;;;;;;4996976;28;20061;-72
2023/07/22 07:19:49;;;;;;;8.45;4.43;;;16.80;99.90;;;;;;4996903;28;20022;-72
2023/07/22 07:22:14;;;;;;;8.50;4.00;;;17.00;99.90;;;;;;4996871;28;20026;-73
2023/07/22 07:24:40;;;;;;;12.25;4.20;;;17.00;99.90;;;;;;4996456;28;20026;-73
2023/07/22 07:27:06;;;;;;;7.60;4.70;;;17.10;99.90;;;;;;4996999;28;20035;-75
2023/07/22 07:29:31;;;;;;;7.00;4.10;;;17.30;99.90;;;;;;4996916;28;20109;-74
2023/07/22 07:31:57;;;;;;;8.38;3.90;;;17.60;99.90;;;;;;4996818;28;20030;-75
2023/07/22 07:34:22;;;;;;;6.88;3.90;;;17.80;99.90;;;;;;4997166;28;20022;-76
2023/07/22 07:36:48;;;;;;;6.82;3.28;;;17.90;99.90;;;;;;4996833;28;20026;-72
2023/07/22 07:39:14;;;;;;;9.65;3.97;;;17.90;99.90;;;;;;4997017;28;20030;-71
2023/07/22 07:41:39;;;;;;;7.13;4.15;;;18.10;99.90;;;;;;4997071;28;20156;-71
2023/07/22 07:44:05;;;;;;;9.93;4.13;;;18.00;99.90;;;;;;4996745;28;20022;-72
2023/07/22 07:46:31;;;;;;;10.32;5.13;;;17.90;99.90;;;;;;4996974;28;20049;-72
2023/07/22 07:48:59;;;;;;;9.45;4.28;;;17.90;99.90;;;;;;4996939;28;20022;-70
2023/07/22 07:51:28;;;;;;;6.85;4.30;;;17.80;99.90;;;;;;4997045;28;20030;-73
2023/07/22 07:53:55;;;;;;;7.07;4.50;;;17.90;99.90;;;;;;4996618;28;20026;-71
2023/07/22 07:56:21;;;;;;;6.32;3.78;;;18.00;99.90;;;;;;4996858;28;20031;-71
2023/07/22 07:58:48;;;;;;;7.07;4.18;;;18.20;99.90;;;;;;4996840;28;20053;-72
2023/07/22 08:01:14;;;;;;;9.07;3.67;;;18.20;99.90;;;;;;4996597;28;20026;-71
2023/07/22 08:03:41;;;;;;;6.40;4.43;;;18.60;99.90;;;;;;4996789;28;20034;-72
2023/07/22 08:06:08;;;;;;;5.80;3.42;;;18.70;99.90;;;;;;4996663;28;20117;-71
2023/07/22 08:08:34;;;;;;;11.35;4.55;;;18.90;99.90;;;;;;4996852;28;20022;-70
2023/07/22 08:11:05;;;;;;;7.80;4.07;;;19.00;99.90;;;;;;4996454;28;20037;-73
2023/07/22 08:13:33;;;;;;;5.50;3.25;;;18.90;99.90;;;;;;4996447;28;20037;-73
2023/07/22 08:15:59;;;;;;;7.15;3.60;;;18.90;99.90;;;;;;4996463;28;20034;-71
2023/07/22 08:18:25;;;;;;;6.80;4.13;;;19.20;99.90;;;;;;4996717;28;20030;-72
2023/07/22 08:20:52;;;;;;;6.93;4.00;;;19.40;99.90;;;;;;4996674;28;20061;-72
2023/07/22 08:23:19;;;;;;;11.95;4.25;;;19.30;99.90;;;;;;4996535;28;20058;-75
2023/07/22 08:25:44;;;;;;;12.88;3.67;;;19.20;99.90;;;;;;4996252;28;20034;-75
2023/07/22 08:28:10;;;;;;;5.80;3.83;;;19.30;99.90;;;;;;4996664;28;20022;-71
2023/07/22 08:30:35;;;;;;;10.98;4.13;;;19.50;99.90;;;;;;4997096;28;20046;-72
2023/07/22 08:33:01;;;;;;;7.57;4.57;;;19.70;99.90;;;;;;4996594;28;20090;-71
2023/07/22 08:35:27;;;;;;;9.50;3.90;;;19.60;99.90;;;;;;4996379;28;20026;-71
2023/07/22 08:37:53;;;;;;;8.75;4.25;;;19.80;99.90;;;;;;5000800;28;20037;-71
2023/07/22 08:40:19;;;;;;;7.43;3.97;;;20.00;99.90;;;;;;5000309;28;20084;-72
2023/07/22 08:42:46;;;;;;;9.68;4.07;;;20.30;99.90;;;;;;5000669;28;20037;-72
2023/07/22 08:45:13;;;;;;;10.18;3.95;;;20.50;99.90;;;;;;5000596;28;20018;-72
2023/07/22 08:47:45;;;;;;;5.60;3.75;;;20.60;99.90;;;;;;5000569;28;20022;-72
2023/07/22 08:50:18;;;;;;;7.20;3.72;;;20.60;99.90;;;;;;5000646;28;20052;-72
2023/07/22 08:52:45;;;;;;;4.70;3.47;;;20.70;99.90;;;;;;5000557;28;20031;-71
2023/07/22 08:55:11;;;;;;;5.90;3.67;;;20.70;99.90;;;;;;4999966;28;20033;-72
2023/07/22 08:57:38;;;;;;;7.70;4.10;;;20.90;99.90;;;;;;5000102;28;20125;-72
2023/07/22 09:00:06;;;;;;;6.35;3.88;;;20.90;99.90;;;;;;4999878;28;20030;-72
2023/07/22 09:02:33;;;;;;;5.03;3.40;;;21.20;99.90;;;;;;4999881;28;20030;-71
2023/07/22 09:04:59;;;;;;;10.15;3.72;;;21.20;99.90;;;;;;5000221;28;20062;-71
2023/07/22 09:07:25;;;;;;;6.32;4.07;;;21.20;99.90;;;;;;4999816;28;20015;-71
2023/07/22 09:09:51;;;;;;;5.80;3.97;;;21.30;99.90;;;;;;4999472;28;20121;-71
2023/07/22 09:12:17;;;;;;;6.93;3.20;;;21.40;99.90;;;;;;4999731;28;20022;-71
2023/07/22 09:14:44;;;;;;;6.78;3.33;;;21.50;99.90;;;;;;4999235;28;20037;-71
2023/07/22 09:17:10;;;;;;;6.40;4.10;;;21.60;99.90;;;;;;4999439;28;20030;-71
2023/07/22 09:19:36;;;;;;;5.45;3.40;;;21.70;99.90;;;;;;4999585;28;20081;-71
2023/07/22 09:22:01;;;;;;;6.03;3.10;;;21.80;99.90;;;;;;4999108;28;20117;-71
2023/07/22 09:24:28;;;;;;;4.97;3.03;;;21.80;99.90;;;;;;4999163;28;20030;-71
2023/07/22 09:26:54;;;;;;;10.57;4.28;;;21.90;99.90;;;;;;4999912;28;20133;-72
2023/07/22 09:29:36;;;;;;;10.73;3.65;;;22.00;99.90;;;;;;4999123;28;20039;-72
2023/07/22 09:32:03;;;;;;;6.65;3.75;;;22.10;99.90;;;;;;4999685;28;20054;-71
2023/07/22 09:34:29;;;;;;;8.95;3.30;;;22.10;99.90;;;;;;4999209;28;20129;-71
2023/07/22 09:36:56;;;;;;;4.38;2.97;;;22.20;99.90;;;;;;4998998;28;20050;-71
2023/07/22 09:39:23;;;;;;;6.38;2.92;;;22.30;99.90;;;;;;4999811;28;20057;-72
2023/07/22 09:41:49;;;;;;;5.53;3.10;;;22.40;99.90;;;;;;4998679;28;20057;-72
2023/07/22 09:44:15;;;;;;;5.18;3.20;;;22.30;99.90;;;;;;4999576;28;20026;-71
2023/07/22 09:46:41;;;;;;;3.92;2.92;;;22.20;99.90;;;;;;4998343;28;20022;-71
2023/07/22 09:49:12;;;;;;;5.30;3.55;;;22.20;99.90;;;;;;4998756;28;20030;-71
2023/07/22 09:51:39;;;;;;;6.15;3.30;;;22.30;99.90;;;;;;4999541;28;20027;-71
2023/07/22 09:54:07;;;;;;;4.80;3.58;;;22.30;99.90;;;;;;4998944;28;20027;-71
2023/07/22 09:56:42;;;;;;;6.50;3.00;;;22.40;99.90;;;;;;4998854;28;20053;-71
2023/07/22 09:59:10;;;;;;;5.70;3.10;;;22.40;99.90;;;;;;4998929;28;20033;-71
2023/07/22 10:01:38;;;;;;;5.40;3.33;;;22.20;99.90;;;;;;4998490;28;20022;-71
2023/07/22 10:04:05;;;;;;;6.10;3.00;;;22.20;99.90;;;;;;4998802;28;20057;-71
2023/07/22 10:06:31;;;;;;;7.55;3.88;;;22.30;99.90;;;;;;4998607;28;20094;-71
2023/07/22 10:09:02;;;;;;;6.97;3.90;;;22.40;99.90;;;;;;4999212;28;20113;-71
2023/07/22 10:11:28;;;;;;;7.43;3.90;;;22.50;99.90;;;;;;4998344;28;20033;-72
2023/07/22 10:13:55;;;;;;;7.15;3.88;;;22.50;99.90;;;;;;4998798;28;20023;-71
2023/07/22 10:16:22;;;;;;;7.35;4.60;;;22.70;99.90;;;;;;4998981;28;20034;-71
2023/07/22 10:18:48;;;;;;;6.38;3.47;;;22.90;99.90;;;;;;4998612;28;20027;-71
2023/07/22 10:21:14;;;;;;;6.30;2.65;;;23.00;99.90;;;;;;4998303;28;20022;-71
2023/07/22 10:23:40;;;;;;;8.68;3.03;;;23.20;99.90;;;;;;4997995;28;20101;-71
2023/07/22 10:26:06;;;;;;;5.35;3.15;;;23.20;99.90;;;;;;4998381;28;20045;-71
2023/07/22 10:28:33;;;;;;;5.05;3.13;;;23.30;99.90;;;;;;4998312;28;20073;-71
2023/07/22 10:30:59;;;;;;;4.30;3.20;;;23.20;99.90;;;;;;4998262;28;20113;-71
2023/07/22 10:33:25;;;;;;;4.65;3.05;;;23.10;99.90;;;;;;4998488;28;20076;-71
2023/07/22 10:36:08;;;;;;;6.22;2.72;;;23.20;99.90;;;;;;4997805;28;20029;-71
2023/07/22 10:38:35;;;;;;;5.50;2.50;;;23.40;99.90;;;;;;4997812;28;20019;-71
2023/07/22 10:41:11;;;;;;;5.72;2.83;;;23.40;99.90;;;;;;4997935;28;20084;-71
2023/07/22 10:43:37;;;;;;;6.22;2.50;;;23.40;99.70;;;;;;4998517;28;20029;-71
2023/07/22 10:46:10;;;;;;;5.90;3.25;;;23.60;98.70;;;;;;4997823;28;20026;-71
2023/07/22 10:48:38;;;;;;;8.18;2.90;;;23.80;98.90;;;;;;4997810;28;20138;-71
2023/07/22 10:51:12;;;;;;;4.95;3.53;;;24.00;98.60;;;;;;4998133;28;20022;-71
2023/07/22 10:53:44;;;;;;;4.55;3.17;;;24.00;98.80;;;;;;4998116;28;20033;-71
2023/07/22 10:56:13;;;;;;;4.50;3.35;;;24.10;98.90;;;;;;4997842;28;20124;-71
2023/07/22 10:58:44;;;;;;;6.35;2.90;;;24.10;97.90;;;;;;4997441;28;20029;-71
2023/07/22 11:01:28;;;;;;;4.45;2.78;;;23.90;97.40;;;;;;4997762;28;20030;-71
2023/07/22 11:04:15;;;;;;;10.15;2.90;;;23.90;97.60;;;;;;4997850;28;20081;-71
2023/07/22 11:06:44;;;;;;;4.88;2.88;;;24.00;97.60;;;;;;4997562;28;20026;-71
2023/07/22 11:09:36;;;;;;;4.35;2.70;;;24.00;97.10;;;;;;4997986;28;20160;-71
2023/07/22 11:12:05;;;;;;;3.72;2.90;;;24.40;96.40;;;;;;4992176;28;20038;-71
2023/07/22 11:14:35;;;;;;;5.28;3.10;;;25.00;95.70;;;;;;4997164;28;20026;-71
2023/07/22 11:17:05;;;;;;;7.22;3.88;;;24.90;94.70;;;;;;4997107;28;20037;-71
2023/07/22 11:19:32;;;;;;;3.90;2.60;;;24.80;94.50;;;;;;4997187;28;20037;-71
2023/07/22 11:21:58;;;;;;;7.82;3.33;;;24.90;94.20;;;;;;4997201;28;20026;-71
2023/07/22 11:24:24;;;;;;;6.90;2.58;;;25.10;93.20;;;;;;4997138;28;20022;-71
2023/07/22 11:26:51;;;;;;;3.88;2.58;;;25.10;93.50;;;;;;4997074;28;20053;-71
2023/07/22 11:29:17;;;;;;;4.05;2.90;;;25.10;93.40;;;;;;4997891;28;20018;-71
2023/07/22 11:31:45;;;;;;;4.05;2.40;;;24.90;92.90;;;;;;4997115;28;20090;-71
2023/07/22 11:34:19;;;;;;;6.32;2.70;;;24.50;93.40;;;;;;4996703;28;20037;-71
2023/07/22 11:36:46;;;;;;;8.40;3.15;;;24.20;93.60;;;;;;4996804;28;20023;-71
2023/07/22 11:39:14;;;;;;;5.55;3.08;;;24.20;93.90;;;;;;4997529;28;20050;-71
2023/07/22 11:41:41;;;;;;;5.70;2.67;;;24.60;94.00;;;;;;4996858;28;20099;-71
2023/07/22 11:44:09;;;;;;;4.63;2.75;;;25.30;93.20;;;;;;4996927;28;20026;-71
2023/07/22 11:46:36;;;;;;;3.70;2.45;;;25.60;90.50;;;;;;4996700;28;20072;-71
2023/07/22 11:49:02;;;;;;;4.88;2.35;;;25.70;90.80;;;;;;4997953;28;20034;-71
2023/07/22 11:51:29;;;;;;;4.53;2.67;;;25.80;90.30;;;;;;4996516;28;20027;-71
2023/07/22 11:53:55;;;;;;;5.13;2.70;;;25.80;89.80;;;;;;4996771;28;20109;-71
2023/07/22 11:56:22;;;;;;;3.15;2.63;;;25.90;87.70;;;;;;4996431;28;20030;-71
2023/07/22 11:58:56;;;;;;;4.35;2.50;;;26.00;89.70;;;;;;4996627;28;20109;-71
2023/07/22 12:01:22;;;;;;;4.93;2.70;;;26.40;88.70;;;;;;4996583;28;20146;-71
2023/07/22 12:03:49;;;;;;;5.38;3.10;;;26.30;86.60;;;;;;4996420;28;20035;-71
2023/07/22 12:06:15;;;;;;;8.80;2.90;;;26.00;86.00;;;;;;4996495;28;20022;-71
2023/07/22 12:08:46;;;;;;;3.95;2.80;;;25.60;87.00;;;;;;4996503;28;20022;-71
2023/07/22 12:11:32;;;;;;;4.25;2.30;;;25.60;87.30;;;;;;4999108;28;20118;-71
2023/07/22 12:14:12;;;;;;;6.60;2.53;;;26.00;86.30;;;;;;5001270;28;20065;-71
2023/07/22 12:16:39;;;;;;;4.43;2.55;;;26.20;84.30;;;;;;5001622;28;20026;-71
2023/07/22 12:19:05;;;;;;;5.22;2.97;;;26.20;84.50;;;;;;5001313;28;20018;-71
2023/07/22 12:21:31;;;;;;;6.85;2.42;;;26.20;84.50;;;;;;5000583;28;20068;-71
2023/07/22 12:23:58;;;;;;;4.10;2.72;;;25.90;83.70;;;;;;5000593;28;20022;-71
2023/07/22 12:26:23;;;;;;;7.55;3.08;;;25.40;85.30;;;;;;5000237;28;20064;-71
2023/07/22 12:28:49;;;;;;;4.50;3.22;;;25.30;85.20;;;;;;5000597;28;20018;-71
2023/07/22 12:31:14;;;;;;;4.68;2.88;;;25.30;85.20;;;;;;5001034;28;20027;-71
2023/07/22 12:33:40;;;;;;;3.72;2.83;;;25.30;85.10;;;;;;5000682;28;20117;-71
2023/07/22 12:36:06;;;;;;;5.28;2.83;;;25.30;85.50;;;;;;5000503;28;20053;-71
2023/07/22 12:38:32;;;;;;;4.25;2.90;;;25.50;84.50;;;;;;5000252;28;20113;-71
2023/07/22 12:40:57;;;;;;;5.53;2.85;;;25.70;85.40;;;;;;5000274;28;20041;-71
2023/07/22 12:43:23;;;;;;;6.40;3.15;;;26.00;84.50;;;;;;4999936;28;20027;-71